HAAB

Addis Ababa Bole International Airport

Addis Ababa, Ethiopia
METAR HAAB 250000Z 05004KT 9999 SCT025 15/09 Q1025
Observed Flight Rules
Apr-25 @ 00:00 UTC (50 minutes ago) Visual Flight Rules
Wind Visibility Clouds
50° at 4 knots 10,000+ meters
  • Scattered at 2,500' AGL
Temperatures Readings
Current 15°C / 59°F
Dewpoint 9°C / 48°F
Humidity 68%
Altimeter 30.27" Hg
Pressure 1025 hPa
Elevation 2355
METAR HAAB 250000Z 05004KT 9999 SCT025 15/09 Q1025
Observed Flight Rules
Apr-25 @ 00:00 UTC
(50 minutes ago)
VFR
Wind Visibility
50° at 4 knots 10,000+ meters
Clouds
  • Scattered at 2,500' AGL
Temperature Dewpoint
15°C / 59°F 9°C / 48°F
Humidity Altimeter Pressure
68% 30.27" Hg 1025 hPa